Time;durP1;ratioP1;P1;durP2;ratioP2;P2;SDS_P1;SDS_P2;PMS_P1;PMS_P2;Temp;Humidity;BMP_temperature;BMP_pressure;BME280_temperature;BME280_humidity;BME280_pressure;Samples;Min_cycle;Max_cycle;Signal;HPM_P1;HPM_P2
2022/02/01 00:00:14;;;;;;;;;;;0.10;99.90;;;;;;4158285;28;19975;-56
2022/02/01 00:02:26;;;;;;;;;;;0.00;99.90;;;;;;4157536;28;19913;-60
2022/02/01 00:04:41;;;;;;;;;;;0.00;99.90;;;;;;4158623;28;19970;-54
2022/02/01 00:07:35;;;;;;;;;;;-0.10;99.90;;;;;;4156951;28;19955;-61
2022/02/01 00:09:51;;;;;;;;;;;-0.10;99.90;;;;;;4142601;28;19963;-55
2022/02/01 00:11:50;;;;;;;;;;;-0.10;99.90;;;;;;4137903;28;20400;-57
2022/02/01 00:34:36;;;;;;;;;;;-0.20;99.90;;;;;;4158535;28;19964;-55
2022/02/01 00:36:45;;;;;;;;;;;-0.30;99.90;;;;;;4157296;28;20036;-58
2022/02/01 00:38:58;;;;;;;;;;;-0.30;99.90;;;;;;4157693;28;19921;-58
2022/02/01 00:41:04;;;;;;;;;;;-0.40;99.90;;;;;;4156756;28;19944;-59
2022/02/01 00:43:07;;;;;;;;;;;-0.40;99.90;;;;;;4157864;28;19959;-60
2022/02/01 00:45:07;;;;;;;;;;;-0.40;99.90;;;;;;4156219;28;19917;-60
2022/02/01 00:47:09;;;;;;;;;;;-0.40;99.90;;;;;;4158015;28;20369;-58
2022/02/01 00:49:10;;;;;;;;;;;-0.40;99.90;;;;;;4157165;28;19929;-61
2022/02/01 00:51:12;;;;;;;;;;;-0.40;99.90;;;;;;4157177;28;19917;-60
2022/02/01 00:53:13;;;;;;;;;;;-0.40;99.90;;;;;;4157522;28;19913;-54
2022/02/01 00:55:14;;;;;;;;;;;-0.40;99.90;;;;;;4157486;28;20012;-58
2022/02/01 00:57:15;;;;;;;;;;;-0.40;99.90;;;;;;4157890;28;19940;-57
2022/02/01 00:59:16;;;;;;;;;;;-0.50;99.90;;;;;;4156939;28;19917;-56
2022/02/01 01:01:17;;;;;;;;;;;-0.50;99.90;;;;;;4158224;28;20562;-53
2022/02/01 01:03:18;;;;;;;;;;;-0.50;99.90;;;;;;4156121;28;19963;-58
2022/02/01 01:05:19;;;;;;;;;;;-0.50;99.90;;;;;;4158306;28;19936;-55
2022/02/01 01:07:20;;;;;;;;;;;-0.50;99.90;;;;;;4156611;28;19918;-61
2022/02/01 01:09:21;;;;;;;;;;;-0.50;99.90;;;;;;4148488;28;19914;-57
2022/02/01 01:11:22;;;;;;;;;;;-0.50;99.90;;;;;;4151788;28;19940;-56
2022/02/01 01:15:38;;;;;;;;;;;-0.50;99.90;;;;;;4140042;28;20320;-58
2022/02/01 01:45:12;;;;;;;;;;;-0.50;99.90;;;;;;4158852;28;19999;-54
2022/02/01 01:54:19;;;;;;;;;;;-0.60;99.90;;;;;;4143214;28;19944;-55
2022/02/01 01:56:21;;;;;;;;;;;-0.60;99.90;;;;;;4144767;28;19914;-56
2022/02/01 01:58:22;;;;;;;;;;;-0.60;99.90;;;;;;4143423;28;19918;-59
2022/02/01 02:01:11;;;;;;;;;;;-0.60;99.90;;;;;;4143368;28;19972;-59
2022/02/01 02:02:50;;;;;;;;;;;-0.60;99.90;;;;;;4141737;28;19948;-56
2022/02/01 02:04:51;;;;;;;;;;;-0.70;99.90;;;;;;4144250;28;19921;-59
2022/02/01 02:06:52;;;;;;;;;;;-0.70;99.90;;;;;;4143241;28;19917;-54
2022/02/01 02:08:55;;;;;;;;;;;-0.70;99.90;;;;;;4143902;28;19917;-57
2022/02/01 02:11:00;;;;;;;;;;;-0.70;99.90;;;;;;4143462;28;19917;-57
2022/02/01 02:14:17;;;;;;;;;;;-0.70;99.90;;;;;;4143508;28;19955;-58
2022/02/01 02:15:38;;;;;;;;;;;-0.70;99.90;;;;;;4142861;28;19918;-55
2022/02/01 02:17:39;;;;;;;;;;;-0.70;99.90;;;;;;4143744;28;19918;-55
2022/02/01 02:19:40;;;;;;;;;;;-0.70;99.90;;;;;;4143860;28;20388;-58
2022/02/01 02:21:45;;;;;;;;;;;-0.80;99.90;;;;;;4143640;28;19910;-61
2022/02/01 02:23:45;;;;;;;;;;;-0.70;99.90;;;;;;4142650;28;20341;-53
2022/02/01 02:25:48;;;;;;;;;;;-0.80;99.90;;;;;;4143186;28;19914;-61
2022/02/01 02:27:49;;;;;;;;;;;-0.80;99.90;;;;;;4143986;28;19917;-57
2022/02/01 02:29:50;;;;;;;;;;;-0.80;99.90;;;;;;4142448;28;20424;-58
2022/02/01 02:31:52;;;;;;;;;;;-0.80;99.90;;;;;;4144145;28;19913;-57
2022/02/01 02:34:02;;;;;;;;;;;-0.80;99.90;;;;;;4142733;28;19963;-54
2022/02/01 02:36:08;;;;;;;;;;;-0.80;99.90;;;;;;4143977;28;19917;-53
2022/02/01 02:38:15;;;;;;;;;;;-0.80;99.90;;;;;;4143018;28;19968;-62
2022/02/01 02:40:33;;;;;;;;;;;-0.80;99.90;;;;;;4143381;28;19921;-60
2022/02/01 02:45:03;;;;;;;;;;;-0.80;99.90;;;;;;4142812;28;19914;-58
2022/02/01 02:45:15;;;;;;;;;;;-0.80;99.90;;;;;;4143415;28;19976;-54
2022/02/01 02:47:16;;;;;;;;;;;-0.80;99.90;;;;;;4142172;28;19913;-62
2022/02/01 02:49:18;;;;;;;;;;;-0.80;99.90;;;;;;4157058;28;19925;-53
2022/02/01 02:51:19;;;;;;;;;;;-0.80;99.90;;;;;;4158119;28;19971;-59
2022/02/01 02:53:20;;;;;;;;;;;-0.80;99.90;;;;;;4159286;28;19913;-55
2022/02/01 02:55:22;;;;;;;;;;;-0.80;99.90;;;;;;4158236;28;19913;-58
2022/02/01 02:57:23;;;;;;;;;;;-0.70;99.90;;;;;;4159892;28;19914;-58
2022/02/01 02:59:25;;;;;;;;;;;-0.70;99.90;;;;;;4158623;28;19923;-57
2022/02/01 03:01:27;;;;;;;;;;;-0.70;99.90;;;;;;4158512;28;20423;-56
2022/02/01 03:03:28;;;;;;;;;;;-0.60;99.90;;;;;;4158456;28;19913;-59
2022/02/01 03:05:28;;;;;;;;;;;-0.60;99.90;;;;;;4159396;28;19923;-58
2022/02/01 03:07:29;;;;;;;;;;;-0.60;99.90;;;;;;4158360;28;19963;-59
2022/02/01 03:09:32;;;;;;;;;;;-0.60;99.90;;;;;;4159299;28;19920;-53
2022/02/01 03:11:33;;;;;;;;;;;-0.60;99.90;;;;;;4159007;28;19909;-60
2022/02/01 03:13:34;;;;;;;;;;;-0.60;99.90;;;;;;4158645;28;19959;-55
2022/02/01 03:15:44;;;;;;;;;;;-0.60;99.90;;;;;;4158761;28;19959;-60
2022/02/01 03:20:05;;;;;;;;;;;-0.60;99.90;;;;;;4159242;28;19971;-56
2022/02/01 03:22:06;;;;;;;;;;;-0.60;99.90;;;;;;4158119;28;19916;-60
2022/02/01 03:24:07;;;;;;;;;;;-0.70;99.90;;;;;;4159266;28;19963;-57
2022/02/01 03:26:08;;;;;;;;;;;-0.60;99.90;;;;;;4158151;28;19917;-60
2022/02/01 03:28:09;;;;;;;;;;;-0.60;99.90;;;;;;4159337;28;19990;-55
2022/02/01 03:30:10;;;;;;;;;;;-0.60;99.90;;;;;;4157403;28;19913;-56
2022/02/01 03:32:11;;;;;;;;;;;-0.70;99.90;;;;;;4158263;28;19917;-61
2022/02/01 03:34:12;;;;;;;;;;;-0.70;99.90;;;;;;4157456;28;20404;-57
2022/02/01 03:36:13;;;;;;;;;;;-0.80;99.90;;;;;;4159053;28;20343;-54
2022/02/01 03:38:14;;;;;;;;;;;-0.70;99.90;;;;;;4158117;28;19913;-61
2022/02/01 03:40:18;;;;;;;;;;;-0.80;99.90;;;;;;4159193;28;19913;-55
2022/02/01 03:42:20;;;;;;;;;;;-0.80;99.90;;;;;;4158169;28;19909;-56
2022/02/01 03:44:21;;;;;;;;;;;-0.80;99.90;;;;;;4158765;28;19963;-53
2022/02/01 03:46:22;;;;;;;;;;;-0.80;99.90;;;;;;4157832;28;19913;-57
2022/02/01 03:48:23;;;;;;;;;;;-0.80;99.90;;;;;;4158876;28;19925;-58
2022/02/01 03:50:24;;;;;;;;;;;-0.80;99.90;;;;;;4158882;28;20250;-61
2022/02/01 03:52:25;;;;;;;;;;;-0.80;99.90;;;;;;4158110;28;19913;-61
2022/02/01 03:54:27;;;;;;;;;;;-0.90;99.90;;;;;;4157609;28;19963;-55
2022/02/01 03:56:28;;;;;;;;;;;-0.90;99.90;;;;;;4157496;28;19994;-57
2022/02/01 03:58:29;;;;;;;;;;;-0.80;99.90;;;;;;4158499;28;19913;-56
2022/02/01 04:00:30;;;;;;;;;;;-0.80;99.90;;;;;;4156620;28;19909;-59
2022/02/01 04:02:31;;;;;;;;;;;-0.80;99.90;;;;;;4158985;28;19917;-59
2022/02/01 04:04:33;;;;;;;;;;;-0.80;99.90;;;;;;4156519;28;20393;-55
2022/02/01 04:06:34;;;;;;;;;;;-0.80;99.90;;;;;;4158522;28;19960;-58
2022/02/01 04:08:35;;;;;;;;;;;-0.80;99.90;;;;;;4157409;28;19921;-57
2022/02/01 04:10:36;;;;;;;;;;;-0.80;99.90;;;;;;4158917;28;19919;-57
2022/02/01 04:12:38;;;;;;;;;;;-0.80;99.90;;;;;;4157492;28;19913;-58
2022/02/01 04:14:39;;;;;;;;;;;-0.80;99.90;;;;;;4157661;28;19967;-57
2022/02/01 04:16:40;;;;;;;;;;;-0.80;99.90;;;;;;4157606;28;20382;-57
2022/02/01 04:18:41;;;;;;;;;;;-0.80;99.90;;;;;;4157961;28;20388;-53
2022/02/01 04:20:43;;;;;;;;;;;-0.80;99.90;;;;;;4157987;28;20459;-58
2022/02/01 04:22:44;;;;;;;;;;;-0.90;99.90;;;;;;4156913;28;19913;-55
2022/02/01 04:24:46;;;;;;;;;;;-0.90;99.90;;;;;;4157904;28;20281;-57
2022/02/01 04:26:47;;;;;;;;;;;-0.90;99.90;;;;;;4157004;28;19913;-57
2022/02/01 04:28:48;;;;;;;;;;;-0.90;99.90;;;;;;4158111;28;19921;-55
2022/02/01 04:30:49;;;;;;;;;;;-0.90;99.90;;;;;;4156375;28;19955;-60
2022/02/01 04:32:51;;;;;;;;;;;-1.00;99.90;;;;;;4158904;28;20353;-58
2022/02/01 04:34:59;;;;;;;;;;;-1.00;99.90;;;;;;4156709;28;19971;-56
2022/02/01 04:37:00;;;;;;;;;;;-1.00;99.90;;;;;;4158226;28;20030;-58
2022/02/01 04:39:01;;;;;;;;;;;-1.00;99.90;;;;;;4157139;28;19917;-55
2022/02/01 04:41:02;;;;;;;;;;;-1.00;99.90;;;;;;4140293;28;20016;-58
2022/02/01 04:43:04;;;;;;;;;;;-1.00;99.90;;;;;;4156585;28;20435;-59
2022/02/01 04:45:07;;;;;;;;;;;-1.00;99.90;;;;;;4158058;28;19963;-51
2022/02/01 04:47:08;;;;;;;;;;;-1.00;99.90;;;;;;4157099;28;20770;-59
2022/02/01 04:49:11;;;;;;;;;;;-1.00;99.90;;;;;;4157980;28;19925;-57
2022/02/01 04:51:12;;;;;;;;;;;-1.00;99.90;;;;;;4156338;28;19917;-55
2022/02/01 04:53:12;;;;;;;;;;;-1.00;99.90;;;;;;4149003;28;19914;-58
2022/02/01 04:55:14;;;;;;;;;;;-0.90;99.90;;;;;;4140895;28;20362;-58
2022/02/01 04:57:15;;;;;;;;;;;-0.90;99.90;;;;;;4140772;28;19964;-63
2022/02/01 04:59:16;;;;;;;;;;;-0.90;99.90;;;;;;4140939;28;19979;-56
2022/02/01 05:01:20;;;;;;;;;;;-0.90;99.90;;;;;;4139958;28;20040;-57
2022/02/01 05:03:21;;;;;;;;;;;-0.90;99.90;;;;;;4140894;28;20365;-57
2022/02/01 05:05:28;;;;;;;;;;;-0.90;99.90;;;;;;4139739;28;19917;-56
2022/02/01 05:07:29;;;;;;;;;;;-0.90;99.90;;;;;;4140889;28;19914;-55
2022/02/01 05:09:31;;;;;;;;;;;-0.90;99.90;;;;;;4139878;28;19924;-59
2022/02/01 05:11:32;;;;;;;;;;;-0.80;99.90;;;;;;4141483;28;20404;-58
2022/02/01 05:16:01;;;;;;;;;;;-0.80;99.90;;;;;;4145327;28;20847;-59
2022/02/01 05:18:02;;;;;;;;;;;-0.80;99.90;;;;;;4143574;28;20771;-56
2022/02/01 05:20:16;;;;;;;;;;;-0.70;99.90;;;;;;4145196;28;19960;-54
2022/02/01 05:22:19;;;;;;;;;;;-0.70;99.90;;;;;;4143431;28;19963;-58
2022/02/01 05:24:21;;;;;;;;;;;-0.80;99.90;;;;;;4144130;28;20348;-56
2022/02/01 05:26:23;;;;;;;;;;;-0.80;99.90;;;;;;4143050;28;19968;-53
2022/02/01 05:28:24;;;;;;;;;;;-0.80;99.90;;;;;;4144907;28;19983;-54
2022/02/01 05:30:26;;;;;;;;;;;-0.90;99.90;;;;;;4142917;28;19913;-53
2022/02/01 05:32:27;;;;;;;;;;;-0.80;99.90;;;;;;4144309;28;20704;-56
2022/02/01 05:34:28;;;;;;;;;;;-0.90;99.90;;;;;;4142971;28;19910;-59
2022/02/01 05:36:29;;;;;;;;;;;-0.90;99.90;;;;;;4143729;28;20357;-61
2022/02/01 05:38:30;;;;;;;;;;;-0.90;99.90;;;;;;4143703;28;19960;-57
2022/02/01 05:40:31;;;;;;;;;;;-0.90;99.90;;;;;;4142887;28;20436;-56
2022/02/01 05:42:43;;;;;;;;;;;-0.90;99.90;;;;;;4144068;28;19920;-61
2022/02/01 05:44:44;;;;;;;;;;;-0.90;99.90;;;;;;4143232;28;20361;-60
2022/02/01 05:46:45;;;;;;;;;;;-0.90;99.90;;;;;;4143337;28;19914;-56
2022/02/01 05:48:46;;;;;;;;;;;-0.90;99.90;;;;;;4142923;28;19926;-56
2022/02/01 05:50:48;;;;;;;;;;;-0.90;99.90;;;;;;4143940;28;19913;-57
2022/02/01 05:52:49;;;;;;;;;;;-0.90;99.90;;;;;;4146802;28;19966;-62
2022/02/01 05:54:50;;;;;;;;;;;-0.80;99.90;;;;;;4160412;28;20274;-55
2022/02/01 05:56:51;;;;;;;;;;;-0.80;99.90;;;;;;4158921;28;19920;-55
2022/02/01 05:58:52;;;;;;;;;;;-0.90;99.90;;;;;;4159918;28;19913;-60
2022/02/01 06:00:53;;;;;;;;;;;-0.90;99.90;;;;;;4158997;28;19928;-57
2022/02/01 06:02:54;;;;;;;;;;;-0.90;99.90;;;;;;4160450;28;19909;-56
2022/02/01 06:04:55;;;;;;;;;;;-0.80;99.90;;;;;;4159176;28;19970;-60
2022/02/01 06:06:56;;;;;;;;;;;-0.80;99.90;;;;;;4156079;28;19925;-57
2022/02/01 06:08:57;;;;;;;;;;;-0.80;99.90;;;;;;4153882;28;19921;-60
2022/02/01 06:10:57;;;;;;;;;;;-0.80;99.90;;;;;;4159102;28;19919;-61
2022/02/01 06:12:58;;;;;;;;;;;-0.80;99.90;;;;;;4158742;28;20314;-59
2022/02/01 06:14:59;;;;;;;;;;;-0.80;99.90;;;;;;4158605;28;19913;-56
2022/02/01 06:17:00;;;;;;;;;;;-0.70;99.90;;;;;;4159228;28;19913;-53
2022/02/01 06:19:01;;;;;;;;;;;-0.70;99.90;;;;;;4158541;28;19909;-58
2022/02/01 06:21:02;;;;;;;;;;;-0.70;99.90;;;;;;4160357;28;19920;-55
2022/02/01 06:23:10;;;;;;;;;;;-0.70;99.90;;;;;;4139957;28;19963;-54
2022/02/01 06:25:11;;;;;;;;;;;-0.70;99.90;;;;;;4159647;28;19975;-54
2022/02/01 06:27:12;;;;;;;;;;;-0.60;99.90;;;;;;4158295;28;19944;-58
2022/02/01 06:29:14;;;;;;;;;;;-0.60;99.90;;;;;;4158990;28;19990;-55
2022/02/01 06:31:15;;;;;;;;;;;-0.50;99.90;;;;;;4158417;28;19959;-52
2022/02/01 06:33:16;;;;;;;;;;;-0.50;99.90;;;;;;4159761;28;19913;-53
2022/02/01 06:35:17;;;;;;;;;;;-0.40;99.90;;;;;;4158654;28;19956;-54
2022/02/01 06:37:18;;;;;;;;;;;-0.40;99.90;;;;;;4159230;28;19913;-56
2022/02/01 06:39:20;;;;;;;;;;;-0.40;99.90;;;;;;4158194;28;20313;-51
2022/02/01 06:41:21;;;;;;;;;;;-0.40;99.90;;;;;;4153068;28;20008;-61
2022/02/01 06:43:23;;;;;;;;;;;-0.40;99.90;;;;;;4155701;28;20437;-55
2022/02/01 06:45:28;;;;;;;;;;;-0.40;99.90;;;;;;4156460;28;19967;-55
2022/02/01 06:47:29;;;;;;;;;;;-0.30;99.90;;;;;;4156812;28;19944;-54
2022/02/01 06:49:30;;;;;;;;;;;-0.30;99.90;;;;;;4154332;28;19936;-53
2022/02/01 06:51:31;;;;;;;;;;;-0.40;99.90;;;;;;4159782;28;19913;-53
2022/02/01 06:53:35;;;;;;;;;;;-0.30;99.90;;;;;;4157599;28;19982;-53
2022/02/01 06:57:43;;;;;;;;;;;-0.30;99.90;;;;;;4158158;28;19921;-61
2022/02/01 06:59:43;;;;;;;;;;;-0.30;99.90;;;;;;4158902;28;20326;-58
2022/02/01 07:01:44;;;;;;;;;;;-0.40;99.90;;;;;;4157409;28;19920;-55
2022/02/01 07:03:45;;;;;;;;;;;-0.40;99.90;;;;;;4159124;28;20250;-61
2022/02/01 07:05:46;;;;;;;;;;;-0.40;99.90;;;;;;4157592;28;19912;-59
2022/02/01 07:07:49;;;;;;;;;;;-0.40;99.90;;;;;;4159029;28;19945;-56
2022/02/01 07:09:50;;;;;;;;;;;-0.30;99.90;;;;;;4157963;28;19975;-57
2022/02/01 07:11:51;;;;;;;;;;;-0.30;99.90;;;;;;4158620;28;19917;-59
2022/02/01 07:13:52;;;;;;;;;;;-0.30;99.90;;;;;;4158301;28;19905;-53
2022/02/01 07:15:53;;;;;;;;;;;-0.30;99.90;;;;;;4158480;28;19913;-56
2022/02/01 07:17:55;;;;;;;;;;;-0.30;99.90;;;;;;4157807;28;20000;-56
2022/02/01 07:19:55;;;;;;;;;;;-0.30;99.90;;;;;;4158323;28;19959;-60
2022/02/01 07:21:56;;;;;;;;;;;-0.30;99.90;;;;;;4158113;28;19914;-60
2022/02/01 07:24:00;;;;;;;;;;;-0.30;99.90;;;;;;4156786;28;19917;-57
2022/02/01 07:26:01;;;;;;;;;;;-0.30;99.90;;;;;;4158772;28;19913;-58
2022/02/01 07:28:03;;;;;;;;;;;-0.30;99.90;;;;;;4156419;28;19954;-52
2022/02/01 07:30:07;;;;;;;;;;;-0.30;99.90;;;;;;4158351;28;20040;-56
2022/02/01 07:32:08;;;;;;;;;;;-0.20;99.90;;;;;;4157075;28;20381;-54
2022/02/01 07:34:11;;;;;;;;;;;-0.20;99.90;;;;;;4158251;28;19952;-54
2022/02/01 07:36:16;;;;;;;;;;;-0.20;99.90;;;;;;4156645;28;19959;-52
2022/02/01 07:38:19;;;;;;;;;;;-0.20;99.90;;;;;;4158791;28;19913;-56
2022/02/01 07:40:21;;;;;;;;;;;-0.10;99.90;;;;;;4157056;28;19967;-57
2022/02/01 07:42:22;;;;;;;;;;;-0.10;99.90;;;;;;4157422;28;19920;-55
2022/02/01 07:44:23;;;;;;;;;;;-0.10;99.90;;;;;;4156346;28;19929;-51
2022/02/01 07:46:24;;;;;;;;;;;-0.10;99.90;;;;;;4158128;28;19917;-50
2022/02/01 07:48:25;;;;;;;;;;;-0.10;99.90;;;;;;4156892;28;19925;-52
2022/02/01 07:50:26;;;;;;;;;;;0.00;99.90;;;;;;4157878;28;19918;-52
2022/02/01 07:52:27;;;;;;;;;;;0.00;99.90;;;;;;4157866;28;19917;-55
2022/02/01 07:54:28;;;;;;;;;;;0.00;99.90;;;;;;4156566;28;20006;-54
2022/02/01 07:56:29;;;;;;;;;;;0.10;99.90;;;;;;4158212;28;20360;-53
2022/02/01 07:58:30;;;;;;;;;;;0.00;99.90;;;;;;4156433;28;19917;-53
2022/02/01 08:00:31;;;;;;;;;;;0.00;99.90;;;;;;4158331;28;19989;-56
2022/02/01 08:02:34;;;;;;;;;;;0.10;99.90;;;;;;4156667;28;19916;-57
2022/02/01 08:04:35;;;;;;;;;;;0.10;99.90;;;;;;4159313;28;19913;-52
2022/02/01 08:06:36;;;;;;;;;;;0.20;99.90;;;;;;4158002;28;19913;-55
2022/02/01 08:08:37;;;;;;;;;;;0.30;99.90;;;;;;4158691;28;20449;-58
2022/02/01 08:10:48;;;;;;;;;;;0.30;99.90;;;;;;4157380;28;19940;-60
2022/02/01 08:17:02;;;;;;;;;;;0.20;99.90;;;;;;4158125;28;20007;-58
2022/02/01 08:19:13;;;;;;;;;;;0.20;99.90;;;;;;4156392;28;19917;-61
2022/02/01 08:21:23;;;;;;;;;;;0.30;99.90;;;;;;4157972;28;20373;-63
2022/02/01 08:23:24;;;;;;;;;;;0.30;99.90;;;;;;4156677;28;19913;-62
2022/02/01 08:25:25;;;;;;;;;;;0.30;99.90;;;;;;4158154;28;19944;-62
2022/02/01 08:27:26;;;;;;;;;;;0.30;99.90;;;;;;4156852;28;19913;-54
2022/02/01 08:29:27;;;;;;;;;;;0.40;99.90;;;;;;4139207;28;19921;-54
2022/02/01 08:31:28;;;;;;;;;;;0.40;99.90;;;;;;4156903;28;20254;-55
2022/02/01 08:33:29;;;;;;;;;;;0.40;99.90;;;;;;4157017;28;19913;-53
2022/02/01 08:35:30;;;;;;;;;;;0.50;99.90;;;;;;4157331;28;19939;-59
2022/02/01 08:37:32;;;;;;;;;;;0.50;99.90;;;;;;4139162;28;19936;-56
2022/02/01 08:39:33;;;;;;;;;;;0.50;99.90;;;;;;4158007;28;19963;-58
2022/02/01 08:41:35;;;;;;;;;;;0.60;99.90;;;;;;4155683;28;19920;-64
2022/02/01 08:43:36;;;;;;;;;;;0.60;99.90;;;;;;4139489;28;19917;-58
2022/02/01 08:45:37;;;;;;;;;;;0.60;99.90;;;;;;4155548;28;20650;-60
2022/02/01 08:47:38;;;;;;;;;;;0.70;99.90;;;;;;4157308;28;19913;-59
2022/02/01 08:49:39;;;;;;;;;;;0.70;99.90;;;;;;4156718;28;19925;-53
2022/02/01 08:51:43;;;;;;;;;;;0.70;99.90;;;;;;4157625;28;19917;-56
2022/02/01 08:53:53;;;;;;;;;;;0.70;99.90;;;;;;4155484;28;19913;-55
2022/02/01 08:57:55;;;;;;;;;;;0.80;99.90;;;;;;4156784;28;19941;-65
2022/02/01 09:00:01;;;;;;;;;;;0.80;99.90;;;;;;4157428;28;19913;-54
2022/02/01 09:02:02;;;;;;;;;;;0.80;99.90;;;;;;4156797;28;19909;-56
2022/02/01 09:04:03;;;;;;;;;;;0.90;99.90;;;;;;4155850;28;19979;-51
2022/02/01 09:06:04;;;;;;;;;;;0.90;99.90;;;;;;4156245;28;19913;-57
2022/02/01 09:08:05;;;;;;;;;;;1.00;99.90;;;;;;4154673;28;19917;-57
2022/02/01 09:10:06;;;;;;;;;;;1.00;99.90;;;;;;4141509;28;20329;-53
2022/02/01 09:12:08;;;;;;;;;;;1.10;99.90;;;;;;4155298;28;19921;-56
2022/02/01 09:14:09;;;;;;;;;;;1.00;99.90;;;;;;4157124;28;19909;-58
2022/02/01 09:16:10;;;;;;;;;;;1.10;99.90;;;;;;4156313;28;19974;-60
2022/02/01 09:18:11;;;;;;;;;;;1.20;99.90;;;;;;4157719;28;19913;-58
2022/02/01 09:20:13;;;;;;;;;;;1.20;99.90;;;;;;4155559;28;19971;-56
2022/02/01 09:22:14;;;;;;;;;;;1.30;99.90;;;;;;4157835;28;20283;-57
2022/02/01 09:24:15;;;;;;;;;;;1.40;99.90;;;;;;4156323;28;20326;-58
2022/02/01 09:26:17;;;;;;;;;;;1.40;99.90;;;;;;4157360;28;19983;-61
2022/02/01 09:28:18;;;;;;;;;;;1.50;99.90;;;;;;4155960;28;19917;-62
2022/02/01 09:30:20;;;;;;;;;;;1.60;99.90;;;;;;4157086;28;20441;-60
2022/02/01 09:32:22;;;;;;;;;;;1.70;99.90;;;;;;4156159;28;19913;-61
2022/02/01 09:34:23;;;;;;;;;;;1.70;99.90;;;;;;4156971;28;19979;-62
2022/02/01 09:36:24;;;;;;;;;;;1.70;99.90;;;;;;4156805;28;19917;-62
2022/02/01 09:38:30;;;;;;;;;;;1.80;99.90;;;;;;4156587;28;19917;-58
2022/02/01 09:40:31;;;;;;;;;;;1.80;99.90;;;;;;4157145;28;19967;-62
2022/02/01 09:42:36;;;;;;;;;;;1.80;99.90;;;;;;4155725;28;19923;-60
2022/02/01 09:44:37;;;;;;;;;;;1.90;99.90;;;;;;4157483;28;19917;-58
2022/02/01 09:46:38;;;;;;;;;;;1.90;99.90;;;;;;4156008;28;19909;-62
2022/02/01 09:48:39;;;;;;;;;;;1.90;99.90;;;;;;4157653;28;20259;-57
2022/02/01 09:50:41;;;;;;;;;;;1.90;99.90;;;;;;4156585;28;20416;-62
2022/02/01 09:52:42;;;;;;;;;;;1.90;99.90;;;;;;4152973;28;19948;-63
2022/02/01 09:54:43;;;;;;;;;;;1.90;99.90;;;;;;4144552;28;20036;-62
2022/02/01 09:56:44;;;;;;;;;;;2.00;99.90;;;;;;4148501;28;19999;-63
2022/02/01 09:58:48;;;;;;;;;;;2.00;99.90;;;;;;4157218;28;19932;-58
2022/02/01 10:00:53;;;;;;;;;;;2.00;99.90;;;;;;4160223;28;19924;-60
2022/02/01 10:02:55;;;;;;;;;;;2.10;99.90;;;;;;4156301;28;20328;-65
2022/02/01 10:05:03;;;;;;;;;;;2.10;99.90;;;;;;4153636;28;19983;-58
2022/02/01 10:07:14;;;;;;;;;;;2.20;99.90;;;;;;4157184;28;20713;-60
2022/02/01 10:09:15;;;;;;;;;;;2.20;99.90;;;;;;4158112;28;19932;-58
2022/02/01 10:11:16;;;;;;;;;;;2.30;99.90;;;;;;4158511;28;19967;-57
2022/02/01 10:13:18;;;;;;;;;;;2.30;99.90;;;;;;4158920;28;19913;-58
2022/02/01 10:15:23;;;;;;;;;;;2.30;99.90;;;;;;4157181;28;19921;-57
2022/02/01 10:17:29;;;;;;;;;;;2.30;99.90;;;;;;4149367;28;19951;-55
2022/02/01 10:19:30;;;;;;;;;;;2.30;99.90;;;;;;4157862;28;19971;-57
2022/02/01 10:21:31;;;;;;;;;;;2.30;99.90;;;;;;4158882;28;19948;-54
2022/02/01 10:23:33;;;;;;;;;;;2.40;99.90;;;;;;4158178;28;19913;-53
2022/02/01 10:25:34;;;;;;;;;;;2.40;99.90;;;;;;4157309;28;19917;-56
2022/02/01 10:27:39;;;;;;;;;;;2.50;99.90;;;;;;4159599;28;19919;-52
2022/02/01 10:30:05;;;;;;;;;;;2.60;99.90;;;;;;4158465;28;19997;-57
2022/02/01 10:32:15;;;;;;;;;;;2.50;99.90;;;;;;4158214;28;19921;-56
2022/02/01 10:36:37;;;;;;;;;;;2.50;99.90;;;;;;4159886;28;19983;-56
2022/02/01 10:38:38;;;;;;;;;;;2.60;99.90;;;;;;4157105;28;19929;-59
2022/02/01 10:40:40;;;;;;;;;;;2.60;99.90;;;;;;4142827;28;20280;-52
2022/02/01 10:42:50;;;;;;;;;;;2.60;99.90;;;;;;4154000;28;19913;-57
2022/02/01 10:44:56;;;;;;;;;;;2.70;99.90;;;;;;4159330;28;19987;-59
2022/02/01 10:46:56;;;;;;;;;;;2.70;99.90;;;;;;4157450;28;19917;-56
2022/02/01 10:48:57;;;;;;;;;;;2.80;99.90;;;;;;4159387;28;20458;-60
2022/02/01 10:51:04;;;;;;;;;;;2.80;99.90;;;;;;4157681;28;20952;-59
2022/02/01 10:53:15;;;;;;;;;;;2.80;99.90;;;;;;4149218;28;20495;-54
2022/02/01 10:55:17;;;;;;;;;;;2.80;99.90;;;;;;4158393;28;19913;-58
2022/02/01 10:57:18;;;;;;;;;;;2.80;99.90;;;;;;4159411;28;20628;-55
2022/02/01 10:59:19;;;;;;;;;;;2.80;99.90;;;;;;4157416;28;20381;-57
2022/02/01 11:01:20;;;;;;;;;;;2.90;99.90;;;;;;4157988;28;19913;-59
2022/02/01 11:03:22;;;;;;;;;;;2.80;99.90;;;;;;4157214;28;19917;-61
2022/02/01 11:05:24;;;;;;;;;;;2.80;99.90;;;;;;4158919;28;19913;-58
2022/02/01 11:07:25;;;;;;;;;;;2.90;99.90;;;;;;4157152;28;19909;-56
2022/02/01 11:09:29;;;;;;;;;;;2.90;99.90;;;;;;4158159;28;19921;-58
2022/02/01 11:11:30;;;;;;;;;;;2.90;99.90;;;;;;4157896;28;19963;-55
2022/02/01 11:13:41;;;;;;;;;;;2.90;99.90;;;;;;4158528;28;19913;-61
2022/02/01 11:16:02;;;;;;;;;;;2.80;99.90;;;;;;4158406;28;19913;-59
2022/02/01 11:18:13;;;;;;;;;;;2.80;99.90;;;;;;4158054;28;20400;-56
2022/02/01 11:20:24;;;;;;;;;;;2.70;99.90;;;;;;4158127;28;19913;-60
2022/02/01 11:22:26;;;;;;;;;;;2.60;99.90;;;;;;4158836;28;20361;-62
2022/02/01 11:24:38;;;;;;;;;;;2.50;99.90;;;;;;4147809;28;19917;-59
2022/02/01 11:26:49;;;;;;;;;;;2.50;99.90;;;;;;4142102;28;20334;-53
2022/02/01 11:31:10;;;;;;;;;;;2.50;99.90;;;;;;4158343;28;19917;-57
2022/02/01 11:33:12;;;;;;;;;;;2.40;99.90;;;;;;4157978;28;19917;-52
2022/02/01 11:35:13;;;;;;;;;;;2.30;99.90;;;;;;4158438;28;19959;-62
2022/02/01 11:37:15;;;;;;;;;;;2.30;99.90;;;;;;4158220;28;19975;-56
2022/02/01 11:39:17;;;;;;;;;;;2.30;99.90;;;;;;4157699;28;19976;-57
2022/02/01 11:41:28;;;;;;;;;;;2.40;99.90;;;;;;4158342;28;19917;-57
2022/02/01 11:43:30;;;;;;;;;;;2.30;99.90;;;;;;4156721;28;19979;-58
2022/02/01 11:45:36;;;;;;;;;;;2.30;99.90;;;;;;4157557;28;20202;-60
2022/02/01 11:47:38;;;;;;;;;;;2.20;99.90;;;;;;4157605;28;19917;-58
2022/02/01 11:49:50;;;;;;;;;;;2.20;99.90;;;;;;4158781;28;20357;-59
2022/02/01 11:51:52;;;;;;;;;;;2.20;99.90;;;;;;4157625;28;19935;-60
2022/02/01 11:53:56;;;;;;;;;;;2.20;99.90;;;;;;4152753;28;20341;-56
2022/02/01 11:55:57;;;;;;;;;;;2.10;99.90;;;;;;4156704;28;19944;-57
2022/02/01 11:58:04;;;;;;;;;;;2.10;99.90;;;;;;4158245;28;20344;-56
2022/02/01 12:00:05;;;;;;;;;;;2.10;99.90;;;;;;4154737;28;19913;-57
2022/02/01 12:02:07;;;;;;;;;;;2.20;99.90;;;;;;4158023;28;19917;-61
2022/02/01 12:04:11;;;;;;;;;;;2.20;99.90;;;;;;4157054;28;19913;-60
2022/02/01 12:06:19;;;;;;;;;;;2.10;99.90;;;;;;4156960;28;19913;-62
2022/02/01 12:08:20;;;;;;;;;;;2.10;99.90;;;;;;4156794;28;19946;-60
2022/02/01 12:10:21;;;;;;;;;;;2.10;99.90;;;;;;4157973;28;19921;-61
2022/02/01 12:12:23;;;;;;;;;;;2.00;99.90;;;;;;4156362;28;19920;-64
2022/02/01 12:14:25;;;;;;;;;;;2.00;99.90;;;;;;4157122;28;20004;-60
2022/02/01 12:16:26;;;;;;;;;;;1.90;99.90;;;;;;4155957;28;20332;-63
2022/02/01 12:18:41;;;;;;;;;;;1.90;99.90;;;;;;4157062;28;19917;-59
2022/02/01 12:20:44;;;;;;;;;;;1.90;99.90;;;;;;4157660;28;19959;-57
2022/02/01 12:23:08;;;;;;;;;;;1.80;99.90;;;;;;4157603;28;19909;-61
2022/02/01 12:25:10;;;;;;;;;;;1.80;99.90;;;;;;4146337;28;19921;-57
2022/02/01 12:27:11;;;;;;;;;;;1.70;99.90;;;;;;4157041;28;20172;-62
2022/02/01 12:29:12;;;;;;;;;;;1.60;99.90;;;;;;4157187;28;20356;-62
2022/02/01 12:31:14;;;;;;;;;;;1.60;99.90;;;;;;4156154;28;19959;-62
2022/02/01 12:33:20;;;;;;;;;;;1.50;99.90;;;;;;4157525;28;19917;-58
2022/02/01 12:35:34;;;;;;;;;;;1.40;99.90;;;;;;4155854;28;19921;-55
2022/02/01 12:37:35;;;;;;;;;;;1.30;99.90;;;;;;4156452;28;19987;-58
2022/02/01 12:39:36;;;;;;;;;;;1.30;99.90;;;;;;4156392;28;19913;-55
2022/02/01 12:41:43;;;;;;;;;;;1.30;99.90;;;;;;4157493;28;19960;-54
2022/02/01 12:46:17;;;;;;;;;;;1.40;99.90;;;;;;4157498;28;19967;-57
2022/02/01 12:48:20;;;;;;;;;;;1.30;99.90;;;;;;4156740;28;20382;-63
2022/02/01 12:50:21;;;;;;;;;;;1.30;99.90;;;;;;4157337;28;20266;-65
2022/02/01 12:52:26;;;;;;;;;;;1.30;99.90;;;;;;4156008;28;19920;-63
2022/02/01 12:54:28;;;;;;;;;;;1.20;99.90;;;;;;4157559;28;20012;-64
2022/02/01 12:56:29;;;;;;;;;;;1.30;99.90;;;;;;4156584;28;19913;-61
2022/02/01 12:58:30;;;;;;;;;;;1.30;99.90;;;;;;4157655;28;19913;-58
2022/02/01 13:00:32;;;;;;;;;;;1.20;99.90;;;;;;4155722;28;19924;-60
2022/02/01 13:02:33;;;;;;;;;;;1.20;99.90;;;;;;4157488;28;19944;-54
2022/02/01 13:04:35;;;;;;;;;;;1.20;99.90;;;;;;4155808;28;19913;-59
2022/02/01 13:06:42;;;;;;;;;;;1.20;99.90;;;;;;4158232;28;19921;-57
2022/02/01 13:12:57;;;;;;;;;;;1.20;99.90;;;;;;4155889;28;19913;-56
2022/02/01 13:15:43;;;;;;;;;;;1.30;99.90;;;;;;4157901;28;19939;-53
2022/02/01 13:17:52;;;;;;;;;;;1.30;99.90;;;;;;4156006;28;19913;-57
2022/02/01 13:20:07;;;;;;;;;;;1.30;99.90;;;;;;4157256;28;19959;-59
2022/02/01 13:22:10;;;;;;;;;;;1.40;99.90;;;;;;4156681;28;20447;-54
2022/02/01 13:24:11;;;;;;;;;;;1.30;99.90;;;;;;4157139;28;19983;-52